createdAt,value
2018-05-31T00:01:52.752Z,9.57
2018-05-31T00:04:21.785Z,9.50
2018-05-31T00:06:50.139Z,9.13
2018-05-31T00:09:18.466Z,8.30
2018-05-31T00:11:46.793Z,9.77
2018-05-31T00:14:15.129Z,9.43
2018-05-31T00:16:44.287Z,9.60
2018-05-31T00:19:12.825Z,9.87
2018-05-31T00:21:41.314Z,11.20
2018-05-31T00:24:09.729Z,9.50
2018-05-31T00:26:38.233Z,12.00
2018-05-31T00:29:06.535Z,11.17
2018-05-31T00:31:34.841Z,8.97
2018-05-31T00:34:03.197Z,9.20
2018-05-31T00:36:31.484Z,10.27
2018-05-31T00:39:00.873Z,10.00
2018-05-31T00:41:30.715Z,10.70
2018-05-31T00:43:59.021Z,10.40
2018-05-31T00:46:27.352Z,10.33
2018-05-31T00:48:56.437Z,10.37
2018-05-31T00:51:24.776Z,9.13
2018-05-31T00:53:53.878Z,9.00
2018-05-31T00:56:22.266Z,10.90
2018-05-31T00:58:50.548Z,11.20
2018-05-31T01:01:18.885Z,10.80
2018-05-31T01:03:47.990Z,9.77
2018-05-31T01:06:16.379Z,9.73
2018-05-31T01:08:44.729Z,12.73
2018-05-31T01:11:13.842Z,10.90
2018-05-31T01:13:42.169Z,10.40
2018-05-31T01:16:10.509Z,11.23
2018-05-31T01:18:39.021Z,10.73
2018-05-31T01:21:07.319Z,9.67
2018-05-31T01:23:35.604Z,8.57
2018-05-31T01:26:04.034Z,12.13
2018-05-31T01:28:32.378Z,10.77
2018-05-31T01:31:00.726Z,11.10
2018-05-31T01:33:29.083Z,13.50
2018-05-31T01:35:57.505Z,10.53
2018-05-31T01:38:31.769Z,11.90
2018-05-31T01:41:00.188Z,14.80
2018-05-31T01:43:28.476Z,10.87
2018-05-31T01:45:56.772Z,15.20
2018-05-31T01:48:25.126Z,12.63
2018-05-31T01:50:54.198Z,14.23
2018-05-31T01:53:22.520Z,13.03
2018-05-31T01:55:50.857Z,15.53
2018-05-31T01:58:19.926Z,15.43
2018-05-31T02:00:48.354Z,16.43
2018-05-31T02:03:18.189Z,15.37
2018-05-31T02:05:47.278Z,14.13
2018-05-31T02:08:15.626Z,17.77
2018-05-31T02:10:43.998Z,13.13
2018-05-31T02:13:12.926Z,16.03
2018-05-31T02:15:41.474Z,14.63
2018-05-31T02:18:09.927Z,13.57
2018-05-31T02:20:38.284Z,13.03
2018-05-31T02:23:06.652Z,14.90
2018-05-31T02:25:34.957Z,14.20
2018-05-31T02:28:03.356Z,13.10
2018-05-31T02:30:31.761Z,14.07
2018-05-31T02:33:00.820Z,12.47
2018-05-31T02:35:30.012Z,13.57
2018-05-31T02:37:58.426Z,14.30
2018-05-31T02:40:27.724Z,14.37
2018-05-31T02:42:56.142Z,13.57
2018-05-31T02:45:24.550Z,15.83
2018-05-31T02:47:53.157Z,14.40
2018-05-31T02:50:21.462Z,14.47
2018-05-31T02:52:49.773Z,16.47
2018-05-31T02:55:18.977Z,18.53
2018-05-31T02:57:47.281Z,16.67
2018-05-31T03:00:17.093Z,16.50
2018-05-31T03:02:45.453Z,14.70
2018-05-31T03:05:14.545Z,14.57
2018-05-31T03:07:43.016Z,15.10
2018-05-31T03:10:11.365Z,14.80
2018-05-31T03:12:39.844Z,14.57
2018-05-31T03:15:08.139Z,15.87
2018-05-31T03:17:36.441Z,15.50
2018-05-31T03:20:04.801Z,15.07
2018-05-31T03:22:33.165Z,14.80
2018-05-31T03:25:01.510Z,18.40
2018-05-31T03:27:29.887Z,16.13
2018-05-31T03:29:58.366Z,15.07
2018-05-31T03:32:29.858Z,15.53
2018-05-31T03:34:58.934Z,16.77
2018-05-31T03:37:29.225Z,17.00
2018-05-31T03:39:57.573Z,18.13
2018-05-31T03:42:25.878Z,18.07
2018-05-31T03:44:54.350Z,17.00
2018-05-31T03:47:23.422Z,19.87
2018-05-31T03:49:51.713Z,16.97
2018-05-31T03:52:20.061Z,16.77
2018-05-31T03:54:48.461Z,16.27
2018-05-31T03:57:17.081Z,18.30
2018-05-31T03:59:45.548Z,17.10
2018-05-31T04:02:13.972Z,16.37
2018-05-31T04:04:42.405Z,17.77
2018-05-31T04:07:11.525Z,19.03
2018-05-31T04:09:40.636Z,18.10
2018-05-31T04:12:09.734Z,18.67
2018-05-31T04:14:38.152Z,19.57
2018-05-31T04:17:07.204Z,18.00
2018-05-31T04:19:36.274Z,18.00
2018-05-31T04:22:04.580Z,18.90
2018-05-31T04:24:32.999Z,20.13
2018-05-31T04:27:01.350Z,21.00
2018-05-31T04:29:29.721Z,18.97
2018-05-31T04:31:58.090Z,18.67
2018-05-31T04:34:26.385Z,20.43
2018-05-31T04:36:54.745Z,18.40
2018-05-31T04:39:23.837Z,19.70
2018-05-31T04:41:52.132Z,19.77
2018-05-31T04:44:20.469Z,19.27
2018-05-31T04:46:49.524Z,21.63
2018-05-31T04:49:18.021Z,20.13
2018-05-31T04:51:46.415Z,21.90
2018-05-31T04:54:15.529Z,20.60
2018-05-31T04:56:43.878Z,21.50
2018-05-31T04:59:12.175Z,21.17
2018-05-31T05:01:40.591Z,18.90
2018-05-31T05:04:08.902Z,20.37
2018-05-31T05:06:37.249Z,20.07
2018-05-31T05:09:05.687Z,20.70
2018-05-31T05:11:34.061Z,20.50
2018-05-31T05:14:02.495Z,20.70
2018-05-31T05:16:30.945Z,22.07
2018-05-31T05:18:59.283Z,19.50
2018-05-31T05:21:28.473Z,25.13
2018-05-31T05:23:56.847Z,19.53
2018-05-31T05:26:25.167Z,22.37
2018-05-31T05:28:54.265Z,20.83
2018-05-31T05:31:22.664Z,21.10
2018-05-31T05:33:51.046Z,20.07
2018-05-31T05:36:19.509Z,22.00
2018-05-31T05:38:48.628Z,20.67
2018-05-31T05:41:17.117Z,21.60
2018-05-31T05:43:46.245Z,20.83
2018-05-31T05:46:15.446Z,23.23
2018-05-31T05:48:44.521Z,20.50
2018-05-31T05:51:12.977Z,21.80
2018-05-31T05:53:42.137Z,21.03
2018-05-31T05:56:10.481Z,20.60
2018-05-31T05:58:38.836Z,21.57
2018-05-31T06:01:07.398Z,19.93
2018-05-31T06:03:36.518Z,21.27
2018-05-31T06:06:04.926Z,19.17
2018-05-31T06:08:33.282Z,20.43
2018-05-31T06:11:01.619Z,21.53
2018-05-31T06:13:31.091Z,20.60
2018-05-31T06:16:00.533Z,19.60
2018-05-31T06:18:29.718Z,22.23
2018-05-31T06:20:58.803Z,19.23
2018-05-31T06:23:27.184Z,19.90
2018-05-31T06:25:55.493Z,19.13
2018-05-31T06:28:23.833Z,19.47
2018-05-31T06:30:53.705Z,21.03
2018-05-31T06:33:22.804Z,20.90
2018-05-31T06:35:51.192Z,21.00
2018-05-31T06:38:19.534Z,19.80
2018-05-31T06:40:48.598Z,19.10
2018-05-31T06:43:17.034Z,19.70
2018-05-31T06:45:45.341Z,19.73
2018-05-31T06:48:13.831Z,19.27
2018-05-31T06:50:42.130Z,19.10
2018-05-31T06:53:10.483Z,19.67
2018-05-31T06:55:38.781Z,20.47
2018-05-31T06:58:07.879Z,18.50
2018-05-31T07:00:36.189Z,18.47
2018-05-31T07:03:05.281Z,17.07
2018-05-31T07:05:33.621Z,19.17
2018-05-31T07:08:02.686Z,16.80
2018-05-31T07:10:31.020Z,19.50
2018-05-31T07:12:59.499Z,17.63
2018-05-31T07:15:27.954Z,19.40
2018-05-31T07:17:57.090Z,15.17
2018-05-31T07:20:25.447Z,15.97
2018-05-31T07:22:53.797Z,15.83
2018-05-31T07:25:22.146Z,15.83
2018-05-31T07:27:50.449Z,15.90
2018-05-31T07:30:19.057Z,15.93
2018-05-31T07:32:47.365Z,13.60
2018-05-31T07:35:15.682Z,15.77
2018-05-31T07:37:44.073Z,17.40
2018-05-31T07:40:12.370Z,15.57
2018-05-31T07:42:40.665Z,13.43
2018-05-31T07:45:09.007Z,14.07
2018-05-31T07:47:38.107Z,17.33
2018-05-31T07:50:06.490Z,14.53
2018-05-31T07:52:34.838Z,12.30
2018-05-31T07:55:03.888Z,13.30
2018-05-31T07:57:32.233Z,12.30
2018-05-31T08:00:00.634Z,12.83
2018-05-31T08:02:29.008Z,13.90
2018-05-31T08:04:57.472Z,11.03
2018-05-31T08:07:26.574Z,13.07
2018-05-31T08:09:54.957Z,14.87
2018-05-31T08:12:23.248Z,15.17
2018-05-31T08:14:51.734Z,12.33
2018-05-31T08:17:20.035Z,11.60
2018-05-31T08:19:48.330Z,18.20
2018-05-31T08:22:16.662Z,12.83
2018-05-31T08:24:44.957Z,10.20
2018-05-31T08:27:13.284Z,10.00
2018-05-31T08:29:41.621Z,9.27
2018-05-31T08:32:10.661Z,9.17
2018-05-31T08:34:39.002Z,7.63
2018-05-31T08:37:07.390Z,9.40
2018-05-31T08:39:35.720Z,11.37
2018-05-31T08:42:04.013Z,10.00
2018-05-31T08:44:32.345Z,7.20
2018-05-31T08:47:01.540Z,7.90
2018-05-31T08:49:29.901Z,7.60
2018-05-31T08:51:58.276Z,10.27
2018-05-31T08:54:27.612Z,6.60
2018-05-31T08:56:56.711Z,8.47
2018-05-31T08:59:25.773Z,7.83
2018-05-31T09:01:54.216Z,6.80
2018-05-31T09:04:22.505Z,12.13
2018-05-31T09:06:50.814Z,8.67
2018-05-31T09:09:19.163Z,7.00
2018-05-31T09:11:48.336Z,11.57
2018-05-31T09:14:16.657Z,7.90
2018-05-31T09:16:44.985Z,8.23
2018-05-31T09:19:14.060Z,8.23
2018-05-31T09:21:42.356Z,5.90
2018-05-31T09:24:10.774Z,7.17
2018-05-31T09:26:39.057Z,7.00
2018-05-31T09:29:07.368Z,8.67
2018-05-31T09:31:35.705Z,6.90
2018-05-31T09:34:04.763Z,5.93
2018-05-31T09:36:33.053Z,9.50
2018-05-31T09:39:01.610Z,8.73
2018-05-31T09:41:29.960Z,6.23
2018-05-31T09:43:58.280Z,5.37
2018-05-31T09:46:26.626Z,5.13
2018-05-31T09:48:55.004Z,5.07
2018-05-31T09:51:23.290Z,6.37
2018-05-31T09:53:51.618Z,7.70
2018-05-31T09:56:19.903Z,6.13
2018-05-31T09:58:48.226Z,7.03
2018-05-31T10:01:16.525Z,4.80
2018-05-31T10:03:44.841Z,5.27
2018-05-31T10:06:13.445Z,5.00
2018-05-31T10:08:41.828Z,5.13
2018-05-31T10:11:10.117Z,7.23
2018-05-31T10:13:38.437Z,5.43
2018-05-31T10:16:06.746Z,4.80
2018-05-31T10:18:35.045Z,4.67
2018-05-31T10:21:03.365Z,6.03
2018-05-31T10:23:31.771Z,6.10
2018-05-31T10:26:00.202Z,4.93
2018-05-31T10:28:28.644Z,6.73
2018-05-31T10:30:57.601Z,5.37
2018-05-31T10:33:26.802Z,4.87
2018-05-31T10:35:55.097Z,5.00
2018-05-31T10:38:23.418Z,4.53
2018-05-31T10:40:51.744Z,6.83
2018-05-31T10:43:20.792Z,6.53
2018-05-31T10:45:49.081Z,4.90
2018-05-31T10:48:17.438Z,5.10
2018-05-31T10:50:46.569Z,7.10
2018-05-31T10:53:14.926Z,4.67
2018-05-31T10:55:43.274Z,7.50
2018-05-31T10:58:11.661Z,5.10
2018-05-31T11:00:39.945Z,7.03
2018-05-31T11:03:08.272Z,14.93
2018-05-31T11:05:36.668Z,4.37
2018-05-31T11:08:04.953Z,7.43
2018-05-31T11:10:33.482Z,9.03
2018-05-31T11:13:01.873Z,5.30
2018-05-31T11:15:30.377Z,5.57
2018-05-31T11:17:58.989Z,5.93
2018-05-31T11:20:27.637Z,8.83
2018-05-31T11:22:56.007Z,6.83
2018-05-31T11:25:24.297Z,5.67
2018-05-31T11:27:52.629Z,6.83
2018-05-31T11:30:20.916Z,6.73
2018-05-31T11:32:49.242Z,6.83
2018-05-31T11:35:17.529Z,7.27
2018-05-31T11:37:45.898Z,5.90
2018-05-31T11:40:14.193Z,8.33
2018-05-31T11:42:42.481Z,5.93
2018-05-31T11:45:10.808Z,6.17
2018-05-31T11:47:39.130Z,8.47
2018-05-31T11:50:07.534Z,7.27
2018-05-31T11:52:35.821Z,5.77
2018-05-31T11:55:04.157Z,8.10
2018-05-31T11:57:32.507Z,5.63
2018-05-31T12:00:00.895Z,5.33
2018-05-31T12:02:29.629Z,6.03
2018-05-31T12:04:57.969Z,5.47
2018-05-31T12:07:26.257Z,7.10
2018-05-31T12:09:54.593Z,5.90
2018-05-31T12:12:23.649Z,7.83
2018-05-31T12:14:51.988Z,5.87
2018-05-31T12:17:20.391Z,6.13
2018-05-31T12:19:48.793Z,7.57
2018-05-31T12:22:17.157Z,6.03
2018-05-31T12:24:45.452Z,5.70
2018-05-31T12:27:13.792Z,5.67
2018-05-31T12:29:42.205Z,12.87
2018-05-31T12:32:10.515Z,7.63
2018-05-31T12:34:38.859Z,8.60
2018-05-31T12:37:07.953Z,6.70
2018-05-31T12:39:36.333Z,9.10
2018-05-31T12:42:04.656Z,5.83
2018-05-31T12:44:33.232Z,6.13
2018-05-31T12:47:01.531Z,10.23
2018-05-31T12:49:29.845Z,7.80
2018-05-31T12:51:58.221Z,5.67
2018-05-31T12:54:26.510Z,6.77
2018-05-31T12:56:55.684Z,6.53
2018-05-31T12:59:24.069Z,5.43
2018-05-31T13:01:52.389Z,8.73
2018-05-31T13:04:21.705Z,5.50
2018-05-31T13:06:50.025Z,7.00
2018-05-31T13:09:18.704Z,11.33
2018-05-31T13:11:47.318Z,7.70
2018-05-31T13:14:15.630Z,5.60
2018-05-31T13:16:43.926Z,10.50
2018-05-31T13:19:12.592Z,6.70
2018-05-31T13:21:41.636Z,6.80
2018-05-31T13:24:10.424Z,8.33
2018-05-31T13:26:39.498Z,7.60
2018-05-31T13:29:08.101Z,6.53
2018-05-31T13:31:36.411Z,6.10
2018-05-31T13:34:04.698Z,6.23
2018-05-31T13:36:33.201Z,6.67
2018-05-31T13:39:01.634Z,5.93
2018-05-31T13:41:29.977Z,5.90
2018-05-31T13:43:58.424Z,5.70
2018-05-31T13:46:27.697Z,5.77
2018-05-31T13:48:56.045Z,5.73
2018-05-31T13:51:24.441Z,8.67
2018-05-31T13:53:52.770Z,5.70
2018-05-31T13:56:21.061Z,7.10
2018-05-31T13:58:49.380Z,5.10
2018-05-31T14:01:17.701Z,5.00
2018-05-31T14:03:46.794Z,5.83
2018-05-31T14:06:15.078Z,5.73
2018-05-31T14:08:43.493Z,6.43
2018-05-31T14:11:11.774Z,6.10
2018-05-31T14:13:40.297Z,6.97
2018-05-31T14:16:08.596Z,5.53
2018-05-31T14:18:36.881Z,5.90
2018-05-31T14:21:05.400Z,11.27
2018-05-31T14:23:33.800Z,6.67
2018-05-31T14:26:02.414Z,6.37
2018-05-31T14:28:31.018Z,6.07
2018-05-31T14:30:59.532Z,5.63
2018-05-31T14:33:28.158Z,4.87
2018-05-31T14:35:56.482Z,7.70
2018-05-31T14:38:24.861Z,5.27
2018-05-31T14:40:53.154Z,8.67
2018-05-31T14:43:21.551Z,5.90
2018-05-31T14:45:49.936Z,6.13
2018-05-31T14:48:18.368Z,8.37
2018-05-31T14:50:46.874Z,9.00
2018-05-31T14:53:15.381Z,6.20
2018-05-31T14:55:43.691Z,8.47
2018-05-31T14:58:11.985Z,5.57
2018-05-31T15:00:40.315Z,5.27
2018-05-31T15:03:08.652Z,5.80
2018-05-31T15:05:37.024Z,9.53
2018-05-31T15:08:05.291Z,8.93
2018-05-31T15:10:33.697Z,5.10
2018-05-31T15:13:02.138Z,9.33
2018-05-31T15:15:31.357Z,8.83
2018-05-31T15:18:00.029Z,4.17
2018-05-31T15:20:28.616Z,11.53
2018-05-31T15:22:57.035Z,11.43
2018-05-31T15:25:25.377Z,4.37
2018-05-31T15:27:53.661Z,6.87
2018-05-31T15:30:22.018Z,4.80
2018-05-31T15:32:50.765Z,6.43
2018-05-31T15:35:19.359Z,4.83
2018-05-31T15:37:47.726Z,5.33
2018-05-31T15:40:16.911Z,4.83
2018-05-31T15:42:45.990Z,8.17
2018-05-31T15:45:14.268Z,4.53
2018-05-31T15:47:43.357Z,8.20
2018-05-31T15:50:12.785Z,4.50
2018-05-31T15:52:41.088Z,5.10
2018-05-31T15:55:09.380Z,5.73
2018-05-31T15:57:37.705Z,5.67
2018-05-31T16:00:05.997Z,5.10
2018-05-31T16:02:34.582Z,6.17
2018-05-31T16:05:03.388Z,5.37
2018-05-31T16:07:32.005Z,6.83
2018-05-31T16:10:00.654Z,7.33
2018-05-31T16:12:29.425Z,10.60
2018-05-31T16:14:58.335Z,5.80
2018-05-31T16:17:26.999Z,4.60
2018-05-31T16:19:56.147Z,6.00
2018-05-31T16:22:25.516Z,5.40
2018-05-31T16:24:55.453Z,7.00
2018-05-31T16:27:23.779Z,4.73
2018-05-31T16:29:52.068Z,7.20
2018-05-31T16:32:20.453Z,6.13
2018-05-31T16:34:48.947Z,5.40
2018-05-31T16:37:17.261Z,7.03
2018-05-31T16:39:45.607Z,4.20
2018-05-31T16:42:13.955Z,4.47
2018-05-31T16:44:42.365Z,5.20
2018-05-31T16:47:10.653Z,4.77
2018-05-31T16:49:39.181Z,5.97
2018-05-31T16:52:07.477Z,7.80
2018-05-31T16:54:35.989Z,10.73
2018-05-31T16:57:04.364Z,5.33
2018-05-31T16:59:32.698Z,5.10
2018-05-31T17:02:01.061Z,6.07
2018-05-31T17:04:29.498Z,5.60
2018-05-31T17:06:57.841Z,7.00
2018-05-31T17:09:27.248Z,6.57
2018-05-31T17:11:55.529Z,5.90
2018-05-31T17:14:23.850Z,5.97
2018-05-31T17:16:53.669Z,5.57
2018-05-31T17:19:22.257Z,6.40
2018-05-31T17:21:50.582Z,8.27
2018-05-31T17:24:19.245Z,6.43
2018-05-31T17:26:48.585Z,6.87
2018-05-31T17:29:16.913Z,7.93
2018-05-31T17:31:45.296Z,11.50
2018-05-31T17:34:13.608Z,5.33
2018-05-31T17:36:42.003Z,5.03
2018-05-31T17:39:10.322Z,6.93
2018-05-31T17:41:38.609Z,9.03
2018-05-31T17:44:06.898Z,7.10
2018-05-31T17:46:35.222Z,6.33
2018-05-31T17:49:03.501Z,9.80
2018-05-31T17:51:31.793Z,6.17
2018-05-31T17:54:00.880Z,7.20
2018-05-31T17:56:29.571Z,5.90
2018-05-31T17:58:57.916Z,5.87
2018-05-31T18:01:26.962Z,5.90
2018-05-31T18:03:55.350Z,6.13
2018-05-31T18:06:23.641Z,8.27
2018-05-31T18:08:52.202Z,7.33
2018-05-31T18:11:20.524Z,7.00
2018-05-31T18:13:48.902Z,5.97
2018-05-31T18:16:17.514Z,7.30
2018-05-31T18:18:45.788Z,8.73
2018-05-31T18:21:14.121Z,6.30
2018-05-31T18:23:42.449Z,8.83
2018-05-31T18:26:11.628Z,8.27
2018-05-31T18:28:39.914Z,7.23
2018-05-31T18:31:08.246Z,8.23
2018-05-31T18:33:36.614Z,8.27
2018-05-31T18:36:04.893Z,6.17
2018-05-31T18:38:33.371Z,8.27
2018-05-31T18:41:01.737Z,6.43
2018-05-31T18:43:30.049Z,10.00
2018-05-31T18:45:58.445Z,10.90
2018-05-31T18:48:26.750Z,8.60
2018-05-31T18:50:55.070Z,7.13
2018-05-31T18:53:23.353Z,16.60
2018-05-31T18:55:51.749Z,6.87
2018-05-31T18:58:20.058Z,11.00
2018-05-31T19:00:48.376Z,6.10
2018-05-31T19:03:16.665Z,8.47
2018-05-31T19:05:44.994Z,7.03
2018-05-31T19:08:14.176Z,7.37
2018-05-31T19:10:42.505Z,6.80
2018-05-31T19:13:16.533Z,6.43
2018-05-31T19:15:44.925Z,6.60
2018-05-31T19:18:19.069Z,6.47
2018-05-31T19:20:47.355Z,7.70
2018-05-31T19:23:15.650Z,6.73
2018-05-31T19:25:43.979Z,11.00
2018-05-31T19:28:12.301Z,6.90
2018-05-31T19:30:46.998Z,6.57
2018-05-31T19:33:15.442Z,11.70
2018-05-31T19:35:50.853Z,9.07
2018-05-31T19:38:19.974Z,7.40
2018-05-31T19:40:49.045Z,8.03
2018-05-31T19:43:23.201Z,7.93
2018-05-31T19:45:51.573Z,7.23
2018-05-31T19:48:19.856Z,7.97
2018-05-31T19:50:48.182Z,8.23
2018-05-31T19:53:22.226Z,7.90
2018-05-31T19:55:50.549Z,8.80
2018-05-31T19:58:24.661Z,7.23
2018-05-31T20:00:58.947Z,7.93
2018-05-31T20:03:33.193Z,15.70
2018-05-31T20:06:02.468Z,8.07
2018-05-31T20:08:30.774Z,9.00
2018-05-31T20:10:59.060Z,7.47
2018-05-31T20:13:27.527Z,10.10
2018-05-31T20:15:56.585Z,7.77
2018-05-31T20:18:24.870Z,7.03
2018-05-31T20:20:53.219Z,8.07
2018-05-31T20:23:21.613Z,10.83
2018-05-31T20:25:49.936Z,7.83
2018-05-31T20:28:18.312Z,7.30
2018-05-31T20:30:46.713Z,9.30
2018-05-31T20:33:15.738Z,6.47
2018-05-31T20:35:44.069Z,13.90
2018-05-31T20:38:13.563Z,9.77
2018-05-31T20:40:41.850Z,10.80
2018-05-31T20:43:10.373Z,7.73
2018-05-31T20:45:38.689Z,11.33
2018-05-31T20:48:07.260Z,11.50
2018-05-31T20:50:35.629Z,9.53
2018-05-31T20:53:04.096Z,6.53
2018-05-31T20:55:32.432Z,8.47
2018-05-31T20:58:00.810Z,7.20
2018-05-31T21:00:29.179Z,9.03
2018-05-31T21:02:57.464Z,6.60
2018-05-31T21:05:26.565Z,11.07
2018-05-31T21:07:54.937Z,8.30
2018-05-31T21:10:23.308Z,8.60
2018-05-31T21:12:51.645Z,9.60
2018-05-31T21:15:19.928Z,7.23
2018-05-31T21:17:48.400Z,9.50
2018-05-31T21:20:17.682Z,8.83
2018-05-31T21:22:46.023Z,10.03
2018-05-31T21:25:15.090Z,8.50
2018-05-31T21:27:43.633Z,9.80
2018-05-31T21:30:12.753Z,25.00
2018-05-31T21:32:41.151Z,12.70
2018-05-31T21:35:10.249Z,17.43
2018-05-31T21:37:38.545Z,9.00
2018-05-31T21:40:06.829Z,8.70
2018-05-31T21:42:35.204Z,11.63
2018-05-31T21:45:03.646Z,11.73
2018-05-31T21:47:31.973Z,8.47
2018-05-31T21:50:00.312Z,10.00
2018-05-31T21:52:29.442Z,12.50
2018-05-31T21:54:57.793Z,10.00
2018-05-31T21:57:26.089Z,9.80
2018-05-31T21:59:54.429Z,8.10
2018-05-31T22:02:23.569Z,17.90
2018-05-31T22:04:52.025Z,9.00
2018-05-31T22:07:20.621Z,12.23
2018-05-31T22:09:49.046Z,10.80
2018-05-31T22:12:17.401Z,13.10
2018-05-31T22:14:45.743Z,13.70
2018-05-31T22:17:14.093Z,12.70
2018-05-31T22:19:42.417Z,11.33
2018-05-31T22:22:10.721Z,16.10
2018-05-31T22:24:39.081Z,12.73
2018-05-31T22:27:08.132Z,10.80
2018-05-31T22:29:36.469Z,10.97
2018-05-31T22:32:04.877Z,11.70
2018-05-31T22:34:33.174Z,13.50
2018-05-31T22:37:01.679Z,12.20
2018-05-31T22:39:30.053Z,13.20
2018-05-31T22:41:58.490Z,11.20
2018-05-31T22:44:26.859Z,11.37
2018-05-31T22:46:55.925Z,12.90
2018-05-31T22:49:24.822Z,12.50
2018-05-31T22:51:53.243Z,10.90
2018-05-31T22:54:21.524Z,11.87
2018-05-31T22:56:49.816Z,12.50
2018-05-31T22:59:18.214Z,12.10
2018-05-31T23:01:46.561Z,11.93
2018-05-31T23:04:14.856Z,11.17
2018-05-31T23:06:43.278Z,15.00
2018-05-31T23:09:12.564Z,15.03
2018-05-31T23:11:40.981Z,12.60
2018-05-31T23:14:09.286Z,18.33
2018-05-31T23:16:37.694Z,16.87
2018-05-31T23:19:06.032Z,18.00
2018-05-31T23:21:35.097Z,21.83
2018-05-31T23:24:03.442Z,19.03
2018-05-31T23:26:32.509Z,11.60
2018-05-31T23:29:01.028Z,12.67
2018-05-31T23:31:29.482Z,11.87
2018-05-31T23:33:57.854Z,13.37
2018-05-31T23:36:26.185Z,14.53
2018-05-31T23:38:55.273Z,15.57
2018-05-31T23:41:23.614Z,14.00
2018-05-31T23:43:52.673Z,13.40
2018-05-31T23:46:21.306Z,17.60
2018-05-31T23:48:49.700Z,16.73
2018-05-31T23:51:17.997Z,16.13
2018-05-31T23:53:46.409Z,17.17
2018-05-31T23:56:14.849Z,15.37
2018-05-31T23:58:43.926Z,17.43
